createdAt,value
2022-12-15T00:00:51.047Z,21.2
2022-12-15T00:01:53.659Z,21.1
2022-12-15T00:02:55.971Z,21.1
2022-12-15T00:03:59.336Z,21.2
2022-12-15T00:05:02.009Z,21.2
2022-12-15T00:06:04.225Z,21.2
2022-12-15T00:07:06.477Z,21.4
2022-12-15T00:08:08.945Z,21.1
2022-12-15T00:09:14.357Z,21.2
2022-12-15T00:10:16.551Z,21.2
2022-12-15T00:11:18.479Z,21.3
2022-12-15T00:12:20.958Z,21.2
2022-12-15T00:13:23.449Z,21.3
2022-12-15T00:14:25.929Z,21.3
2022-12-15T00:15:28.177Z,21.2
2022-12-15T00:16:30.125Z,21.3
2022-12-15T00:17:32.538Z,21.3
2022-12-15T00:18:34.471Z,21.3
2022-12-15T00:19:36.956Z,21.4
2022-12-15T00:20:39.192Z,21.2
2022-12-15T00:21:41.376Z,21.3
2022-12-15T00:22:43.859Z,21.3
2022-12-15T00:23:46.063Z,21.4
2022-12-15T00:24:49.638Z,21.3
2022-12-15T00:25:52.449Z,21.4
2022-12-15T00:26:54.929Z,21.4
2022-12-15T00:27:57.410Z,21.4
2022-12-15T00:28:59.629Z,21.4
2022-12-15T00:30:01.537Z,21.3
2022-12-15T00:31:04.075Z,21.3
2022-12-15T00:32:06.658Z,21.4
2022-12-15T00:33:09.132Z,21.4
2022-12-15T00:34:11.346Z,21.4
2022-12-15T00:35:13.267Z,21.3
2022-12-15T00:36:15.773Z,21.5
2022-12-15T00:37:17.698Z,21.4
2022-12-15T00:38:19.888Z,21.4
2022-12-15T00:39:22.372Z,21.3
2022-12-15T00:40:24.953Z,21.5
2022-12-15T00:41:27.138Z,21.5
2022-12-15T00:42:29.339Z,21.6
2022-12-15T00:43:32.052Z,21.4
2022-12-15T00:44:36.717Z,21.5
2022-12-15T00:45:38.928Z,21.5
2022-12-15T00:46:41.479Z,21.4
2022-12-15T00:47:44.115Z,21.5
2022-12-15T00:48:46.610Z,21.4
2022-12-15T00:49:48.532Z,21.5
2022-12-15T00:50:50.447Z,21.5
2022-12-15T00:51:52.950Z,21.4
2022-12-15T00:52:55.436Z,21.4
2022-12-15T00:53:57.914Z,21.4
2022-12-15T00:55:00.414Z,21.4
2022-12-15T00:56:02.734Z,21.5
2022-12-15T00:57:04.953Z,21.5
2022-12-15T00:58:07.175Z,21.6
2022-12-15T00:59:09.658Z,21.5
2022-12-15T01:00:12.135Z,21.6
2022-12-15T01:01:14.634Z,21.5
2022-12-15T01:02:16.757Z,21.6
2022-12-15T01:03:20.194Z,21.6
2022-12-15T01:04:23.612Z,21.5
2022-12-15T01:05:26.107Z,21.6
2022-12-15T01:06:27.778Z,21.8
2022-12-15T01:07:30.323Z,21.7
2022-12-15T01:08:32.528Z,21.6
2022-12-15T01:09:34.736Z,21.6
2022-12-15T01:10:37.231Z,21.7
2022-12-15T01:11:39.892Z,21.7
2022-12-15T01:12:42.383Z,21.6
2022-12-15T01:13:44.856Z,21.7
2022-12-15T01:14:49.835Z,21.7
2022-12-15T01:15:52.403Z,21.6
2022-12-15T01:16:54.562Z,21.7
2022-12-15T01:17:56.776Z,21.5
2022-12-15T01:18:59.263Z,21.7
2022-12-15T01:20:01.444Z,21.6
2022-12-15T01:21:03.653Z,21.6
2022-12-15T01:22:05.900Z,21.6
2022-12-15T01:23:08.118Z,21.6
2022-12-15T01:24:10.614Z,21.6
2022-12-15T01:25:12.823Z,21.6
2022-12-15T01:26:15.304Z,21.7
2022-12-15T01:27:17.901Z,21.7
2022-12-15T01:28:20.370Z,21.8
2022-12-15T01:29:22.569Z,21.6
2022-12-15T01:30:24.805Z,21.7
2022-12-15T01:31:27.341Z,21.8
2022-12-15T01:32:29.965Z,21.8
2022-12-15T01:33:32.812Z,21.8
2022-12-15T01:34:36.110Z,21.7
2022-12-15T01:35:38.588Z,21.7
2022-12-15T01:36:40.770Z,21.8
2022-12-15T01:37:42.965Z,21.7
2022-12-15T01:38:49.393Z,21.7
2022-12-15T01:39:50.423Z,21.8
2022-12-15T01:40:52.672Z,21.7
2022-12-15T01:41:55.163Z,21.7
2022-12-15T01:42:57.880Z,21.8
2022-12-15T01:44:00.089Z,21.8
2022-12-15T01:45:02.571Z,21.8
2022-12-15T01:46:04.805Z,21.7
2022-12-15T01:47:07.359Z,21.7
2022-12-15T01:48:10.177Z,21.7
2022-12-15T01:49:12.656Z,21.7
2022-12-15T01:50:15.141Z,21.8
2022-12-15T01:51:17.063Z,21.7
2022-12-15T01:52:19.575Z,21.8
2022-12-15T01:53:22.045Z,21.8
2022-12-15T01:54:24.268Z,21.8
2022-12-15T01:55:26.458Z,22
2022-12-15T01:56:32.488Z,22
2022-12-15T01:57:33.927Z,21.9
2022-12-15T01:58:36.617Z,21.8
2022-12-15T01:59:38.819Z,21.8
2022-12-15T02:00:41.058Z,22
2022-12-15T02:01:43.999Z,21.9
2022-12-15T02:02:48.960Z,21.8
2022-12-15T02:03:52.122Z,21.8
2022-12-15T02:04:54.032Z,21.9
2022-12-15T02:05:56.242Z,21.8
2022-12-15T02:06:58.717Z,21.9
2022-12-15T02:08:01.194Z,21.8
2022-12-15T02:09:03.675Z,21.8
2022-12-15T02:10:06.202Z,21.9
2022-12-15T02:11:08.777Z,21.8
2022-12-15T02:12:11.259Z,21.7
2022-12-15T02:13:13.170Z,21.8
2022-12-15T02:14:15.474Z,21.9
2022-12-15T02:15:17.949Z,21.8
2022-12-15T02:16:20.462Z,22
2022-12-15T02:17:22.523Z,21.8
2022-12-15T02:18:25.017Z,21.8
2022-12-15T02:19:26.941Z,21.8
2022-12-15T02:20:29.148Z,21.9
2022-12-15T02:21:31.637Z,21.9
2022-12-15T02:22:33.844Z,21.9
2022-12-15T02:23:35.763Z,22.1
2022-12-15T02:24:38.243Z,21.9
2022-12-15T02:25:40.549Z,21.9
2022-12-15T02:26:43.042Z,22
2022-12-15T02:27:44.945Z,21.9
2022-12-15T02:28:47.425Z,22
2022-12-15T02:29:50.122Z,21.9
2022-12-15T02:30:52.151Z,21.9
2022-12-15T02:31:54.442Z,21.9
2022-12-15T02:32:57.322Z,21.8
2022-12-15T02:33:59.555Z,21.9
2022-12-15T02:35:02.039Z,22.1
2022-12-15T02:36:04.531Z,21.9
2022-12-15T02:37:06.738Z,21.9
2022-12-15T02:38:08.918Z,21.9
2022-12-15T02:39:11.395Z,22
2022-12-15T02:40:13.577Z,21.9
2022-12-15T02:41:15.816Z,22
2022-12-15T02:42:18.290Z,22
2022-12-15T02:43:20.778Z,21.9
2022-12-15T02:44:23.264Z,21.9
2022-12-15T02:45:25.872Z,21.9
2022-12-15T02:46:28.605Z,22
2022-12-15T02:47:31.125Z,21.9
2022-12-15T02:48:33.622Z,22.1
2022-12-15T02:49:36.240Z,22.1
2022-12-15T02:50:38.448Z,21.9
2022-12-15T02:51:40.640Z,22.1
2022-12-15T02:52:42.852Z,21.9
2022-12-15T02:53:45.348Z,21.9
2022-12-15T02:54:47.563Z,22
2022-12-15T02:55:50.220Z,22
2022-12-15T02:56:52.548Z,21.9
2022-12-15T02:57:54.763Z,21.9
2022-12-15T02:58:57.246Z,21.9
2022-12-15T02:59:59.479Z,21.9
2022-12-15T03:01:01.997Z,21.9
2022-12-15T03:02:04.659Z,21.9
2022-12-15T03:03:08.368Z,21.9
2022-12-15T03:04:11.130Z,22.1
2022-12-15T03:05:13.409Z,22
2022-12-15T03:06:15.637Z,22.1
2022-12-15T03:07:18.120Z,22
2022-12-15T03:08:20.330Z,22
2022-12-15T03:09:22.817Z,22.1
2022-12-15T03:10:25.026Z,21.9
2022-12-15T03:11:27.523Z,21.9
2022-12-15T03:12:29.769Z,22.2
2022-12-15T03:13:32.668Z,22
2022-12-15T03:14:36.310Z,22
2022-12-15T03:15:38.524Z,22
2022-12-15T03:16:41.172Z,22.1
2022-12-15T03:17:43.811Z,21.9
2022-12-15T03:18:45.801Z,22
2022-12-15T03:19:49.613Z,22
2022-12-15T03:20:52.048Z,21.9
2022-12-15T03:21:54.301Z,21.9
2022-12-15T03:22:56.485Z,21.9
2022-12-15T03:23:58.679Z,21.8
2022-12-15T03:25:00.627Z,21.9
2022-12-15T03:26:03.153Z,22
2022-12-15T03:27:05.662Z,21.9
2022-12-15T03:28:07.909Z,22
2022-12-15T03:29:10.116Z,22
2022-12-15T03:30:12.339Z,21.8
2022-12-15T03:31:15.061Z,21.9
2022-12-15T03:32:17.958Z,21.8
2022-12-15T03:33:20.951Z,22
2022-12-15T03:34:23.179Z,22.1
2022-12-15T03:35:25.389Z,22.1
2022-12-15T03:36:27.859Z,21.9
2022-12-15T03:37:30.069Z,22
2022-12-15T03:38:32.008Z,22
2022-12-15T03:39:34.219Z,22
2022-12-15T03:40:36.451Z,21.8
2022-12-15T03:41:38.089Z,22.1
2022-12-15T03:42:40.577Z,21.8
2022-12-15T03:43:42.525Z,22
2022-12-15T03:44:44.431Z,21.9
2022-12-15T03:45:46.716Z,22
2022-12-15T03:46:49.240Z,22
2022-12-15T03:47:51.561Z,21.8
2022-12-15T03:48:54.051Z,21.9
2022-12-15T03:49:56.546Z,21.8
2022-12-15T03:50:58.450Z,21.9
2022-12-15T03:51:59.821Z,21.9
2022-12-15T03:53:01.462Z,21.8
2022-12-15T03:54:03.682Z,21.9
2022-12-15T03:55:06.203Z,22
2022-12-15T03:56:08.413Z,22
2022-12-15T03:57:10.898Z,22
2022-12-15T03:58:12.822Z,22
2022-12-15T03:59:15.039Z,21.8
2022-12-15T04:00:17.001Z,21.9
2022-12-15T04:01:19.323Z,22
2022-12-15T04:02:22.199Z,22
2022-12-15T04:03:26.095Z,21.9
2022-12-15T04:04:29.613Z,22.1
2022-12-15T04:05:31.827Z,22
2022-12-15T04:06:33.800Z,21.9
2022-12-15T04:07:36.299Z,22
2022-12-15T04:08:38.510Z,21.9
2022-12-15T04:09:40.713Z,21.9
2022-12-15T04:10:43.197Z,21.9
2022-12-15T04:11:45.423Z,22
2022-12-15T04:12:47.958Z,22
2022-12-15T04:13:50.152Z,21.8
2022-12-15T04:14:52.676Z,21.9
2022-12-15T04:15:55.149Z,21.8
2022-12-15T04:16:57.417Z,21.9
2022-12-15T04:18:00.072Z,21.8
2022-12-15T04:19:02.577Z,22
2022-12-15T04:20:05.082Z,21.9
2022-12-15T04:21:07.069Z,21.8
2022-12-15T04:22:12.602Z,21.8
2022-12-15T04:23:14.547Z,21.8
2022-12-15T04:24:17.052Z,21.7
2022-12-15T04:25:19.237Z,21.9
2022-12-15T04:26:21.452Z,21.8
2022-12-15T04:27:23.363Z,21.8
2022-12-15T04:28:25.875Z,21.9
2022-12-15T04:29:28.099Z,21.8
2022-12-15T04:30:31.209Z,21.8
2022-12-15T04:31:34.016Z,21.8
2022-12-15T04:32:36.501Z,21.8
2022-12-15T04:33:39.275Z,21.8
2022-12-15T04:34:42.056Z,21.8
2022-12-15T04:35:44.242Z,21.7
2022-12-15T04:36:49.228Z,21.8
2022-12-15T04:37:51.447Z,21.8
2022-12-15T04:38:53.097Z,21.7
2022-12-15T04:39:55.604Z,21.7
2022-12-15T04:40:57.579Z,21.7
2022-12-15T04:42:00.090Z,21.7
2022-12-15T04:43:02.353Z,21.6
2022-12-15T04:44:04.300Z,21.7
2022-12-15T04:45:06.786Z,21.8
2022-12-15T04:46:08.796Z,21.7
2022-12-15T04:47:10.942Z,21.7
2022-12-15T04:48:12.883Z,21.6
2022-12-15T04:49:14.820Z,21.6
2022-12-15T04:50:17.116Z,21.6
2022-12-15T04:51:19.598Z,21.6
2022-12-15T04:52:25.765Z,21.7
2022-12-15T04:53:27.834Z,21.6
2022-12-15T04:54:32.489Z,21.7
2022-12-15T04:55:34.975Z,21.7
2022-12-15T04:56:37.203Z,21.6
2022-12-15T04:57:39.684Z,21.7
2022-12-15T04:58:41.648Z,21.6
2022-12-15T04:59:43.586Z,21.6
2022-12-15T05:00:45.770Z,21.5
2022-12-15T05:01:48.172Z,21.6
2022-12-15T05:02:50.928Z,21.6
2022-12-15T05:03:53.368Z,21.7
2022-12-15T05:04:55.848Z,21.7
2022-12-15T05:05:58.153Z,21.7
2022-12-15T05:07:00.372Z,21.6
2022-12-15T05:08:02.287Z,21.6
2022-12-15T05:09:04.505Z,21.6
2022-12-15T05:10:11.076Z,21.6
2022-12-15T05:11:11.685Z,21.6
2022-12-15T05:12:14.186Z,21.7
2022-12-15T05:13:16.657Z,21.4
2022-12-15T05:14:19.148Z,21.4
2022-12-15T05:15:21.659Z,21.6
2022-12-15T05:16:24.255Z,21.5
2022-12-15T05:17:26.921Z,21.6
2022-12-15T05:18:29.863Z,21.7
2022-12-15T05:19:32.357Z,21.6
2022-12-15T05:20:34.583Z,21.5
2022-12-15T05:21:37.158Z,21.6
2022-12-15T05:22:39.858Z,21.5
2022-12-15T05:23:42.051Z,21.7
2022-12-15T05:24:44.527Z,21.6
2022-12-15T05:25:46.749Z,21.6
2022-12-15T05:26:52.523Z,21.5
2022-12-15T05:27:54.207Z,21.6
2022-12-15T05:28:56.129Z,21.6
2022-12-15T05:29:58.612Z,21.5
2022-12-15T05:31:00.890Z,21.5
2022-12-15T05:32:03.737Z,21.4
2022-12-15T05:33:06.266Z,21.4
2022-12-15T05:34:08.747Z,21.5
2022-12-15T05:35:10.948Z,21.5
2022-12-15T05:36:13.529Z,21.5
2022-12-15T05:37:16.117Z,21.5
2022-12-15T05:38:18.617Z,21.5
2022-12-15T05:39:20.552Z,21.5
2022-12-15T05:40:23.057Z,21.6
2022-12-15T05:41:25.545Z,21.5
2022-12-15T05:42:28.042Z,21.4
2022-12-15T05:43:30.615Z,21.4
2022-12-15T05:44:35.808Z,21.5
2022-12-15T05:45:38.290Z,21.5
2022-12-15T05:46:40.522Z,21.3
2022-12-15T05:47:43.359Z,21.5
2022-12-15T05:48:45.589Z,21.4
2022-12-15T05:49:47.788Z,21.4
2022-12-15T05:50:49.996Z,21.5
2022-12-15T05:51:51.690Z,21.5
2022-12-15T05:52:54.258Z,21.3
2022-12-15T05:53:56.740Z,21.5
2022-12-15T05:54:58.950Z,21.5
2022-12-15T05:56:01.441Z,21.4
2022-12-15T05:57:03.913Z,21.4
2022-12-15T05:58:05.826Z,21.4
2022-12-15T05:59:08.031Z,21.4
2022-12-15T06:00:10.252Z,21.4
2022-12-15T06:01:12.492Z,21.4
2022-12-15T06:02:14.490Z,21.4
2022-12-15T06:03:17.540Z,21.4
2022-12-15T06:04:19.958Z,21.5
2022-12-15T06:05:22.859Z,21.4
2022-12-15T06:06:25.375Z,21.4
2022-12-15T06:07:27.855Z,21.3
2022-12-15T06:08:30.532Z,21.4
2022-12-15T06:09:32.760Z,21.4
2022-12-15T06:10:35.242Z,21.3
2022-12-15T06:11:37.565Z,21.3
2022-12-15T06:12:39.588Z,21.6
2022-12-15T06:13:42.081Z,21.6
2022-12-15T06:14:44.292Z,21.5
2022-12-15T06:15:50.764Z,21.5
2022-12-15T06:16:53.546Z,21.5
2022-12-15T06:17:57.354Z,21.4
2022-12-15T06:18:59.566Z,21.4
2022-12-15T06:20:02.202Z,21.6
2022-12-15T06:21:04.673Z,21.4
2022-12-15T06:22:06.891Z,21.6
2022-12-15T06:23:09.105Z,21.4
2022-12-15T06:24:11.421Z,21.4
2022-12-15T06:25:13.647Z,21.5
2022-12-15T06:26:16.144Z,21.4
2022-12-15T06:27:18.619Z,21.6
2022-12-15T06:28:21.100Z,21.5
2022-12-15T06:29:23.025Z,21.3
2022-12-15T06:30:25.257Z,21.4
2022-12-15T06:31:27.550Z,21.4
2022-12-15T06:32:30.172Z,21.3
2022-12-15T06:33:32.504Z,21.4
2022-12-15T06:34:35.964Z,21.3
2022-12-15T06:35:37.636Z,21.3
2022-12-15T06:36:40.119Z,21.4
2022-12-15T06:37:42.603Z,21.5
2022-12-15T06:38:45.081Z,21.4
2022-12-15T06:39:50.056Z,21.4
2022-12-15T06:40:52.639Z,21.3
2022-12-15T06:41:54.852Z,21.4
2022-12-15T06:42:57.353Z,21.4
2022-12-15T06:43:59.562Z,21.3
2022-12-15T06:45:01.855Z,21.3
2022-12-15T06:46:04.067Z,21.4
2022-12-15T06:47:06.348Z,21.3
2022-12-15T06:48:09.306Z,21.4
2022-12-15T06:49:11.794Z,21.4
2022-12-15T06:50:13.730Z,21.4
2022-12-15T06:51:17.284Z,21.3
2022-12-15T06:52:19.782Z,21.3
2022-12-15T06:53:21.726Z,21.4
2022-12-15T06:54:23.938Z,21.4
2022-12-15T06:55:26.157Z,21.4
2022-12-15T06:56:32.884Z,21.4
2022-12-15T06:57:33.578Z,21.4
2022-12-15T06:58:35.832Z,21.5
2022-12-15T06:59:38.346Z,21.4
2022-12-15T07:00:40.329Z,21.4
2022-12-15T07:01:42.341Z,21.3
2022-12-15T07:02:48.256Z,21.3
2022-12-15T07:03:51.589Z,21.3
2022-12-15T07:04:55.586Z,21.4
2022-12-15T07:05:57.814Z,21.4
2022-12-15T07:06:59.777Z,21.3
2022-12-15T07:08:02.302Z,21.5
2022-12-15T07:09:04.268Z,21.5
2022-12-15T07:10:06.791Z,21.4
2022-12-15T07:11:09.287Z,21.4
2022-12-15T07:12:11.856Z,21.4
2022-12-15T07:13:13.803Z,21.5
2022-12-15T07:14:16.034Z,21.4
2022-12-15T07:15:17.994Z,21.4
2022-12-15T07:16:20.297Z,21.4
2022-12-15T07:17:22.944Z,21.3
2022-12-15T07:18:25.461Z,21.3
2022-12-15T07:19:27.955Z,21.3
2022-12-15T07:20:29.905Z,21.3
2022-12-15T07:21:32.571Z,21.4
2022-12-15T07:22:34.814Z,21.3
2022-12-15T07:23:53.075Z,21.3
2022-12-15T07:24:42.327Z,21.4
2022-12-15T07:25:44.556Z,21.3
2022-12-15T07:26:48.880Z,21.5
2022-12-15T07:27:51.710Z,21.4
2022-12-15T07:28:54.179Z,21.3
2022-12-15T07:29:57.259Z,21.3
2022-12-15T07:30:58.925Z,21.4
2022-12-15T07:32:01.670Z,21.4
2022-12-15T07:33:04.300Z,21.4
2022-12-15T07:34:06.790Z,21.3
2022-12-15T07:35:09.155Z,21.3
2022-12-15T07:36:11.367Z,21.4
2022-12-15T07:37:13.638Z,21.3
2022-12-15T07:38:15.978Z,21.4
2022-12-15T07:39:18.247Z,21.4
2022-12-15T07:40:20.515Z,21.4
2022-12-15T07:41:23.001Z,21.4
2022-12-15T07:42:24.638Z,21.3
2022-12-15T07:43:27.301Z,21.3
2022-12-15T07:44:32.034Z,21.4
2022-12-15T07:45:34.025Z,21.3
2022-12-15T07:46:36.843Z,21.4
2022-12-15T07:47:39.985Z,21.3
2022-12-15T07:48:42.479Z,21.3
2022-12-15T07:49:48.872Z,21.5
2022-12-15T07:50:51.359Z,21.3
2022-12-15T07:51:53.844Z,21.4
2022-12-15T07:52:55.773Z,21.4
2022-12-15T07:53:58.107Z,21.3
2022-12-15T07:55:00.620Z,21.3
2022-12-15T07:56:09.526Z,21.4
2022-12-15T07:57:07.856Z,21.2
2022-12-15T07:58:10.366Z,21.3
2022-12-15T07:59:13.044Z,21.2
2022-12-15T08:00:15.264Z,21.4
2022-12-15T08:01:17.307Z,21.3
2022-12-15T08:02:20.419Z,21.2
2022-12-15T08:03:24.218Z,21.3
2022-12-15T08:04:26.975Z,21.3
2022-12-15T08:05:29.159Z,21.3
2022-12-15T08:06:31.647Z,21.4
2022-12-15T08:07:34.140Z,21.3
2022-12-15T08:08:36.802Z,21.4
2022-12-15T08:09:39.606Z,21.3
2022-12-15T08:10:42.095Z,21.3
2022-12-15T08:11:44.597Z,21.3
2022-12-15T08:12:47.102Z,21.2
2022-12-15T08:14:09.079Z,21.3
2022-12-15T08:14:54.564Z,21.3
2022-12-15T08:15:57.255Z,21.3
2022-12-15T08:16:59.824Z,21.4
2022-12-15T08:18:02.536Z,21.4
2022-12-15T08:19:04.489Z,21.3
2022-12-15T08:20:10.043Z,21.4
2022-12-15T08:21:12.004Z,21.3
2022-12-15T08:22:14.493Z,21.4
2022-12-15T08:23:16.677Z,21.3
2022-12-15T08:24:18.878Z,21.3
2022-12-15T08:25:21.463Z,21.3
2022-12-15T08:26:28.358Z,21.4
2022-12-15T08:27:28.655Z,21.3
2022-12-15T08:28:31.161Z,21.3
2022-12-15T08:29:50.443Z,21.3
2022-12-15T08:30:37.795Z,21.3
2022-12-15T08:31:40.466Z,21.3
2022-12-15T08:32:45.036Z,21.3
2022-12-15T08:33:47.757Z,21.4
2022-12-15T08:34:49.978Z,21.3
2022-12-15T08:35:56.993Z,21.3
2022-12-15T08:36:57.434Z,21.4
2022-12-15T08:38:03.808Z,21.2
2022-12-15T08:39:04.095Z,21.2
2022-12-15T08:40:06.600Z,21.3
2022-12-15T08:41:09.130Z,21.3
2022-12-15T08:42:11.355Z,21.2
2022-12-15T08:43:13.845Z,21.2
2022-12-15T08:44:15.785Z,21.3
2022-12-15T08:45:18.529Z,21.2
2022-12-15T08:46:20.783Z,21.4
2022-12-15T08:47:24.028Z,21.3
2022-12-15T08:48:26.539Z,21.2
2022-12-15T08:49:28.731Z,21.2
2022-12-15T08:50:31.220Z,21.3
2022-12-15T08:51:33.706Z,21.2
2022-12-15T08:52:35.913Z,21.3
2022-12-15T08:53:38.415Z,21.3
2022-12-15T08:54:40.643Z,21.3
2022-12-15T08:55:42.872Z,21.3
2022-12-15T08:56:44.543Z,21.2
2022-12-15T08:57:46.754Z,21.2
2022-12-15T08:58:48.974Z,21.2
2022-12-15T08:59:51.205Z,21.3
2022-12-15T09:00:53.500Z,21.4
2022-12-15T09:01:56.160Z,21.1
2022-12-15T09:02:59.820Z,21.3
2022-12-15T09:04:02.161Z,21.2
2022-12-15T09:05:04.863Z,21.3
2022-12-15T09:06:07.347Z,21.3
2022-12-15T09:07:09.030Z,21.3
2022-12-15T09:08:10.673Z,21.3
2022-12-15T09:09:13.188Z,21.4
2022-12-15T09:10:15.675Z,21.3
2022-12-15T09:11:18.177Z,21.3
2022-12-15T09:12:20.447Z,21.4
2022-12-15T09:13:22.983Z,21.3
2022-12-15T09:14:28.983Z,21.3
2022-12-15T09:16:00.115Z,21.4
2022-12-15T09:16:34.910Z,21.3
2022-12-15T09:17:37.524Z,21.2
2022-12-15T09:18:40.215Z,21.3
2022-12-15T09:19:42.423Z,21.4
2022-12-15T09:20:44.646Z,21.2
2022-12-15T09:21:46.569Z,21.3
2022-12-15T09:22:50.289Z,21.2
2022-12-15T09:23:52.868Z,21.3
2022-12-15T09:24:55.078Z,21.3
2022-12-15T09:25:57.300Z,21.3
2022-12-15T09:26:59.513Z,21.3
2022-12-15T09:28:02.017Z,21.3
2022-12-15T09:29:04.544Z,21.3
2022-12-15T09:30:06.753Z,21.3
2022-12-15T09:31:08.988Z,21.3
2022-12-15T09:32:14.172Z,21.3
2022-12-15T09:33:17.024Z,21.3
2022-12-15T09:34:20.032Z,21.3
2022-12-15T09:35:21.965Z,21.3
2022-12-15T09:36:24.494Z,21.2
2022-12-15T09:37:26.999Z,21.3
2022-12-15T09:38:29.510Z,21.2
2022-12-15T09:39:31.498Z,21.3
2022-12-15T09:40:34.058Z,21.2
2022-12-15T09:41:35.993Z,21.4
2022-12-15T09:42:38.516Z,21.4
2022-12-15T09:43:46.376Z,21.3
2022-12-15T09:44:46.019Z,21.2
2022-12-15T09:45:48.253Z,21.3
2022-12-15T09:46:50.791Z,21.2
2022-12-15T09:47:53.007Z,21.2
2022-12-15T09:48:55.254Z,21.2
2022-12-15T09:49:57.898Z,21.2
2022-12-15T09:51:00.383Z,21.1
2022-12-15T09:52:05.899Z,21.3
2022-12-15T09:53:17.768Z,21.1
2022-12-15T09:54:12.296Z,21.3
2022-12-15T09:55:14.302Z,21.3
2022-12-15T09:56:16.908Z,21.2
2022-12-15T09:57:19.412Z,21.3
2022-12-15T09:58:21.911Z,21.3
2022-12-15T09:59:23.855Z,21.3
2022-12-15T10:00:26.367Z,21.3
2022-12-15T10:01:28.600Z,21.3
2022-12-15T10:02:31.704Z,21.3
2022-12-15T10:03:35.117Z,21.2
2022-12-15T10:04:40.619Z,21.2
2022-12-15T10:06:05.884Z,21.4
2022-12-15T10:06:48.872Z,21.3
2022-12-15T10:07:53.152Z,21.3
2022-12-15T10:08:57.028Z,21.3
2022-12-15T10:09:59.224Z,21.3
2022-12-15T10:11:01.510Z,21.3
2022-12-15T10:12:03.442Z,21.2
2022-12-15T10:13:05.802Z,21.2
2022-12-15T10:14:08.340Z,21.3
2022-12-15T10:15:10.847Z,21.3
2022-12-15T10:16:13.161Z,21.4
2022-12-15T10:17:15.767Z,21.2
2022-12-15T10:18:18.272Z,21.3
2022-12-15T10:19:20.486Z,21.2
2022-12-15T10:20:22.725Z,21.3
2022-12-15T10:21:25.560Z,21.3
2022-12-15T10:22:27.208Z,21.3
2022-12-15T10:23:30.129Z,21.4
2022-12-15T10:25:08.336Z,21.2
2022-12-15T10:25:40.318Z,21.4
2022-12-15T10:26:42.563Z,21.2
2022-12-15T10:27:45.896Z,21.2
2022-12-15T10:28:51.587Z,21.3
2022-12-15T10:29:54.267Z,21.4
2022-12-15T10:30:58.071Z,21.2
2022-12-15T10:32:01.229Z,21.4
2022-12-15T10:33:03.167Z,21.3
2022-12-15T10:34:05.402Z,21.4
2022-12-15T10:35:07.956Z,21.2
2022-12-15T10:36:10.497Z,21.2
2022-12-15T10:37:13.094Z,21.3
2022-12-15T10:38:15.310Z,21.2
2022-12-15T10:39:17.778Z,21.3
2022-12-15T10:40:20.118Z,21.3
2022-12-15T10:41:22.348Z,21.3
2022-12-15T10:42:24.844Z,21.3
2022-12-15T10:43:27.235Z,21.2
2022-12-15T10:44:32.599Z,21.3
2022-12-15T10:45:35.101Z,21.2
2022-12-15T10:46:37.374Z,21.1
2022-12-15T10:47:39.809Z,21.2
2022-12-15T10:48:41.464Z,21.3
2022-12-15T10:49:43.980Z,21.2
2022-12-15T10:51:54.142Z,21.3
2022-12-15T10:52:57.123Z,21.2
2022-12-15T10:53:59.327Z,21.2
2022-12-15T10:55:01.553Z,21.1
2022-12-15T10:56:03.773Z,21.3
2022-12-15T10:57:05.988Z,21.3
2022-12-15T10:58:08.216Z,21.3
2022-12-15T10:59:10.444Z,21.2
2022-12-15T11:00:12.665Z,21.3
2022-12-15T11:01:15.029Z,21.4
2022-12-15T11:02:23.340Z,21.2
2022-12-15T11:03:23.222Z,21.3
2022-12-15T11:04:27.643Z,21.2
2022-12-15T11:05:30.900Z,21.4
2022-12-15T11:06:33.245Z,21.2
2022-12-15T11:07:35.190Z,21.3
2022-12-15T11:08:37.809Z,21.3
2022-12-15T11:09:40.301Z,21.2
2022-12-15T11:10:42.210Z,21.3
2022-12-15T11:11:45.491Z,21.2
2022-12-15T11:12:52.319Z,21.3
2022-12-15T11:13:57.819Z,21.3
2022-12-15T11:15:00.304Z,21.3
2022-12-15T11:16:02.527Z,21.3
2022-12-15T11:17:05.022Z,21.3
2022-12-15T11:18:07.599Z,21.4
2022-12-15T11:19:09.810Z,21.2
2022-12-15T11:20:12.311Z,21.3
2022-12-15T11:21:14.816Z,21.3
2022-12-15T11:22:16.730Z,21.3
2022-12-15T11:23:18.973Z,21.2
2022-12-15T11:24:21.569Z,21.3
2022-12-15T11:25:24.063Z,21.2
2022-12-15T11:26:26.287Z,21.3
2022-12-15T11:27:28.208Z,21.3
2022-12-15T11:28:30.726Z,21.2
2022-12-15T11:29:32.942Z,21.3
2022-12-15T11:30:35.438Z,21.3
2022-12-15T11:31:37.644Z,21.3
2022-12-15T11:32:39.849Z,21.3
2022-12-15T11:33:42.151Z,21.2
2022-12-15T11:34:45.901Z,21.2
2022-12-15T11:35:48.888Z,21.3
2022-12-15T11:36:51.190Z,21.2
2022-12-15T11:37:55.328Z,21.4
2022-12-15T11:38:57.552Z,21.4
2022-12-15T11:40:00.265Z,21.3
2022-12-15T11:41:02.765Z,21.2
2022-12-15T11:42:04.952Z,21.3
2022-12-15T11:43:07.434Z,21.3
2022-12-15T11:44:09.635Z,21.2
2022-12-15T11:45:11.564Z,21.3
2022-12-15T11:46:13.936Z,21.3
2022-12-15T11:47:16.433Z,21.3
2022-12-15T11:48:18.642Z,21.4
2022-12-15T11:49:20.871Z,21.2
2022-12-15T11:50:23.075Z,21.3
2022-12-15T11:51:25.575Z,21.3
2022-12-15T11:52:27.500Z,21.3
2022-12-15T11:53:29.506Z,21.2
2022-12-15T11:54:35.039Z,21.2
2022-12-15T11:55:41.357Z,21.3
2022-12-15T11:56:42.738Z,21.3
2022-12-15T11:57:45.050Z,21.2
2022-12-15T11:58:51.494Z,21.4
2022-12-15T11:59:55.310Z,21.3
2022-12-15T12:00:57.806Z,21.3
2022-12-15T12:03:04.778Z,21.4
2022-12-15T12:04:07.124Z,21.2
2022-12-15T12:05:09.364Z,21.3
2022-12-15T12:06:11.577Z,21.2
2022-12-15T12:07:13.279Z,21.3
2022-12-15T12:08:15.766Z,21.3
2022-12-15T12:09:18.330Z,21.3
2022-12-15T12:10:20.250Z,21.3
2022-12-15T12:11:22.917Z,21.3
2022-12-15T12:12:25.718Z,21.3
2022-12-15T12:13:27.939Z,21.3
2022-12-15T12:14:30.425Z,21.2
2022-12-15T12:15:32.642Z,21.3
2022-12-15T12:16:34.842Z,21.4
2022-12-15T12:17:37.327Z,21.2
2022-12-15T12:18:39.596Z,21.3
2022-12-15T12:19:42.279Z,21.3
2022-12-15T12:20:48.990Z,21.3
2022-12-15T12:21:52.579Z,21.3
2022-12-15T12:22:55.990Z,21.4
2022-12-15T12:23:58.219Z,21.4
2022-12-15T12:25:00.207Z,21.4
2022-12-15T12:26:03.334Z,21.3
2022-12-15T12:27:06.199Z,21.2
2022-12-15T12:28:08.684Z,21.4
2022-12-15T12:29:11.196Z,21.2
2022-12-15T12:30:13.787Z,21.3
2022-12-15T12:31:15.985Z,21.2
2022-12-15T12:32:18.512Z,21.3
2022-12-15T12:33:20.744Z,21.4
2022-12-15T12:34:23.236Z,21.3
2022-12-15T12:35:32.420Z,21.4
2022-12-15T12:36:30.759Z,21.3
2022-12-15T12:37:33.240Z,21.3
2022-12-15T12:38:36.076Z,21.3
2022-12-15T12:39:38.399Z,21.4
2022-12-15T12:40:40.975Z,21.3
2022-12-15T12:41:43.287Z,21.2
2022-12-15T12:42:49.266Z,21.3
2022-12-15T12:43:52.982Z,21.3
2022-12-15T12:44:55.476Z,21.4
2022-12-15T12:45:59.179Z,21.4
2022-12-15T12:47:01.669Z,21.4
2022-12-15T12:48:04.160Z,21.3
2022-12-15T12:49:06.647Z,21.3
2022-12-15T12:50:08.581Z,21.3
2022-12-15T12:51:10.766Z,21.3
2022-12-15T12:52:13.283Z,21.3
2022-12-15T12:53:15.503Z,21.4
2022-12-15T12:54:17.739Z,21.3
2022-12-15T12:55:20.245Z,21.3
2022-12-15T12:56:22.468Z,21.2
2022-12-15T12:57:24.993Z,21.4
2022-12-15T12:58:27.533Z,21.3
2022-12-15T12:59:30.089Z,21.3
2022-12-15T13:00:32.799Z,21.4
2022-12-15T13:01:36.370Z,21.4
2022-12-15T13:02:40.301Z,21.4
2022-12-15T13:03:43.267Z,21.3
2022-12-15T13:04:45.201Z,21.4
2022-12-15T13:05:48.765Z,21.4
2022-12-15T13:06:52.686Z,21.4
2022-12-15T13:07:55.228Z,21.4
2022-12-15T13:08:57.445Z,21.3
2022-12-15T13:10:01.415Z,21.3
2022-12-15T13:11:03.939Z,21.3
2022-12-15T13:12:21.090Z,21.3
2022-12-15T13:13:11.409Z,21.5
2022-12-15T13:14:18.506Z,21.3
2022-12-15T13:15:18.913Z,21.4
2022-12-15T13:16:21.542Z,21.3
2022-12-15T13:17:26.837Z,21.3
2022-12-15T13:18:29.144Z,21.4
2022-12-15T13:19:33.332Z,21.3
2022-12-15T13:20:35.521Z,21.4
2022-12-15T13:21:37.751Z,21.3
2022-12-15T13:22:40.235Z,21.2
2022-12-15T13:23:42.187Z,21.3
2022-12-15T13:24:45.910Z,21.3
2022-12-15T13:25:55.432Z,21.4
2022-12-15T13:26:55.877Z,21.3
2022-12-15T13:27:59.134Z,21.3
2022-12-15T13:29:01.685Z,21.4
2022-12-15T13:30:04.207Z,21.3
2022-12-15T13:31:06.548Z,21.4
2022-12-15T13:32:09.528Z,21.4
2022-12-15T13:33:11.812Z,21.4
2022-12-15T13:34:14.024Z,21.3
2022-12-15T13:35:16.244Z,21.3
2022-12-15T13:36:18.783Z,21.4
2022-12-15T13:37:21.011Z,21.3
2022-12-15T13:38:23.493Z,21.4
2022-12-15T13:39:26.125Z,21.4
2022-12-15T13:40:28.309Z,21.2
2022-12-15T13:41:30.532Z,21.3
2022-12-15T13:42:35.309Z,21.3
2022-12-15T13:43:37.720Z,21.3
2022-12-15T13:44:39.915Z,21.3
2022-12-15T13:45:42.014Z,21.3
2022-12-15T13:46:49.349Z,21.3
2022-12-15T13:47:53.899Z,21.4
2022-12-15T13:48:55.856Z,21.5
2022-12-15T13:50:01.636Z,21.5
2022-12-15T13:51:03.603Z,21.4
2022-12-15T13:52:06.104Z,21.4
2022-12-15T13:53:18.648Z,21.2
2022-12-15T13:54:13.290Z,21.3
2022-12-15T13:55:15.816Z,21.3
2022-12-15T13:56:22.263Z,21.4
2022-12-15T13:57:24.539Z,21.3
2022-12-15T13:58:27.015Z,21.3
2022-12-15T13:59:29.253Z,21.3